Observation data for Tulia on 11/13/2019      Previous  Date       Current Mesonet Observations  Soil Data  Daily Summary Page  Observations in Plain Language
KTIS 130600Z 21015KT M01/M10 A3012 RMK A01 T10091099  RH  050%=      5-min Rain = 0
KTIS 130605Z 21015G20KT M01/M10 A3012 RMK A01 T10091099  RH  050%=      5-min Rain = 0
KTIS 130610Z 21015KT M01/M10 A3012 RMK A01 T10091099  RH  050%=      5-min Rain = 0
KTIS 130615Z 21015KT M01/M10 A3012 RMK A01 T10091099  RH  050%=      5-min Rain = 0
KTIS 130620Z 21014KT M01/M10 A3011 RMK A01 T10101100  RH  050%=      5-min Rain = 0
KTIS 130625Z 21014G20KT M01/M10 A3011 RMK A01 T10101099  RH  051%=      5-min Rain = 0
KTIS 130630Z 21013KT M01/M10 A3011 RMK A01 T10111099  RH  051%=      5-min Rain = 0
KTIS 130635Z 21014G19KT M01/M10 A3011 RMK A01 T10111099  RH  051%=      5-min Rain = 0
KTIS 130640Z 22013KT M01/M10 A3011 RMK A01 T10111099  RH  051%=      5-min Rain = 0
KTIS 130645Z 22013KT M01/M10 A3011 RMK A01 T10111099  RH  051%=      5-min Rain = 0
KTIS 130650Z 22013KT M01/M10 A301 RMK A01 T10121099  RH  051%=      5-min Rain = 0
KTIS 130655Z 22013KT M01/M10 A301 RMK A01 T10121099  RH  051%=      5-min Rain = 0
KTIS 130700Z 22012KT M01/M10 A301 RMK A01 T10121099  RH  051%=      5-min Rain = 0
KTIS 130705Z 22013KT M01/M10 A301 RMK A01 T10121099  RH  051%=      5-min Rain = 0
KTIS 130710Z 22012KT M01/M10 A301 RMK A01 T10121099  RH  051%=      5-min Rain = 0
KTIS 130715Z 22013KT M01/M10 A3009 RMK A01 T10131099  RH  052%=      5-min Rain = 0
KTIS 130720Z 21013G18KT M01/M10 A3009 RMK A01 T10131099  RH  052%=      5-min Rain = 0
KTIS 130725Z 22013KT M01/M10 A3009 RMK A01 T10141099  RH  052%=      5-min Rain = 0
KTIS 130730Z 22012KT M02/M10 A3009 RMK A01 T10161099  RH  053%=      5-min Rain = 0
KTIS 130735Z 22013KT M02/M10 A3008 RMK A01 T10151099  RH  052%=      5-min Rain = 0
KTIS 130740Z 21012KT M02/M10 A3008 RMK A01 T10161099  RH  053%=      5-min Rain = 0
KTIS 130745Z 21015G20KT M02/M10 A3008 RMK A01 T10151099  RH  053%=      5-min Rain = 0
KTIS 130750Z 21015G21KT M01/M10 A3008 RMK A01 T10141100  RH  052%=      5-min Rain = 0
KTIS 130755Z 21014KT M02/M10 A3007 RMK A01 T10151099  RH  052%=      5-min Rain = 0
KTIS 130800Z 21015KT M02/M10 A3007 RMK A01 T10151100  RH  052%=      5-min Rain = 0
KTIS 130805Z 21016KT M01/M10 A3006 RMK A01 T10141100  RH  052%=      5-min Rain = 0
KTIS 130810Z 21014G19KT M01/M10 A3006 RMK A01 T10141100  RH  052%=      5-min Rain = 0
KTIS 130815Z 21014G19KT M01/M10 A3006 RMK A01 T10141100  RH  052%=      5-min Rain = 0
KTIS 130820Z 21014KT M01/M10 A3006 RMK A01 T10141101  RH  051%=      5-min Rain = 0
KTIS 130825Z 21013G18KT M01/M10 A3006 RMK A01 T10141101  RH  051%=      5-min Rain = 0
KTIS 130830Z 21014G19KT M01/M10 A3006 RMK A01 T10141101  RH  051%=      5-min Rain = 0
KTIS 130835Z 21014G19KT M01/M10 A3006 RMK A01 T10141101  RH  051%=      5-min Rain = 0
KTIS 130840Z 22015KT M01/M10 A3005 RMK A01 T10141102  RH  051%=      5-min Rain = 0
KTIS 130845Z 22015G20KT M01/M10 A3004 RMK A01 T10131103  RH  050%=      5-min Rain = 0
KTIS 130850Z 23012KT M01/M10 A3005 RMK A01 T10141103  RH  050%=      5-min Rain = 0
KTIS 130855Z 24011KT M01/M10 A3005 RMK A01 T10141103  RH  051%=      5-min Rain = 0
KTIS 130900Z 23012KT M02/M10 A3004 RMK A01 T10151103  RH  051%=      5-min Rain = 0
KTIS 130905Z 22011KT M02/M10 A3004 RMK A01 T10161103  RH  051%=      5-min Rain = 0
KTIS 130910Z 22011G17KT M02/M10 A3004 RMK A01 T10161102  RH  052%=      5-min Rain = 0
KTIS 130915Z 22011G16KT M02/M10 A3004 RMK A01 T10171102  RH  052%=      5-min Rain = 0
KTIS 130920Z 22012KT M02/M10 A3003 RMK A01 T10181102  RH  053%=      5-min Rain = 0
KTIS 130925Z 21011KT M02/M10 A3003 RMK A01 T10191101  RH  053%=      5-min Rain = 0
KTIS 130930Z 21013KT M02/M10 A3003 RMK A01 T10191101  RH  053%=      5-min Rain = 0
KTIS 130935Z 21013G19KT M02/M10 A3002 RMK A01 T10191100  RH  054%=      5-min Rain = 0
KTIS 130940Z 21013KT M02/M10 A3002 RMK A01 T10201100  RH  054%=      5-min Rain = 0
KTIS 130945Z 22014G19KT M02/M10 A3002 RMK A01 T10211101  RH  054%=      5-min Rain = 0
KTIS 130950Z 21015KT M02/M10 A3002 RMK A01 T10231100  RH  055%=      5-min Rain = 0
KTIS 130955Z 22015KT M02/M10 A3001 RMK A01 T10231100  RH  055%=      5-min Rain = 0
KTIS 131000Z 22015KT M02/M10 A3001 RMK A01 T10231100  RH  055%=      5-min Rain = 0
KTIS 131005Z 22015G20KT M02/M10 A30 RMK A01 T10211099  RH  055%=      5-min Rain = 0
KTIS 131010Z 22015KT M02/M10 A30 RMK A01 T10211099  RH  055%=      5-min Rain = 0
KTIS 131015Z 22016G22KT M02/M10 A30 RMK A01 T10191098  RH  055%=      5-min Rain = 0
KTIS 131020Z 22016G21KT M02/M10 A2999 RMK A01 T10181097  RH  054%=      5-min Rain = 0
KTIS 131025Z 22016G21KT M02/M10 A2999 RMK A01 T10161096  RH  054%=      5-min Rain = 0
KTIS 131030Z 23017KT M01/M10 A2999 RMK A01 T10141095  RH  054%=      5-min Rain = 0
KTIS 131035Z 23016G22KT M01/M09 A2999 RMK A01 T10121093  RH  054%=      5-min Rain = 0
KTIS 131040Z 23017G23KT M01/M09 A2998 RMK A01 T10111092  RH  054%=      5-min Rain = 0
KTIS 131045Z 22017G22KT M01/M09 A2998 RMK A01 T10111092  RH  054%=      5-min Rain = 0
KTIS 131050Z 22017G22KT M01/M09 A2998 RMK A01 T10111091  RH  054%=      5-min Rain = 0
KTIS 131055Z 22017G22KT M01/M09 A2998 RMK A01 T10121091  RH  055%=      5-min Rain = 0
KTIS 131100Z 22016G22KT M02/M09 A2998 RMK A01 T10151091  RH  056%=      5-min Rain = 0
KTIS 131105Z 22016KT M02/M09 A2998 RMK A01 T10171091  RH  057%=      5-min Rain = 0
KTIS 131110Z 22016KT M02/M09 A2998 RMK A01 T10181091  RH  057%=      5-min Rain = 0
KTIS 131115Z 22016KT M02/M09 A2998 RMK A01 T10191091  RH  058%=      5-min Rain = 0
KTIS 131120Z 22016KT M02/M09 A2998 RMK A01 T10211090  RH  059%=      5-min Rain = 0
KTIS 131125Z 21015KT M02/M09 A2998 RMK A01 T10231090  RH  060%=      5-min Rain = 0
KTIS 131130Z 22016G21KT M02/M09 A2998 RMK A01 T10231090  RH  060%=      5-min Rain = 0
KTIS 131135Z 22015KT M02/M09 A2998 RMK A01 T10241090  RH  060%=      5-min Rain = 0
KTIS 131140Z 22015KT M02/M09 A2997 RMK A01 T10241089  RH  061%=      5-min Rain = 0
KTIS 131145Z 22015KT M02/M09 A2997 RMK A01 T10241089  RH  061%=      5-min Rain = 0
KTIS 131150Z 22014KT M03/M09 A2997 RMK A01 T10261089  RH  062%=      5-min Rain = 0
KTIS 131155Z 22014KT M03/M09 A2997 RMK A01 T10271089  RH  062%=      5-min Rain = 0
KTIS 131200Z 21014KT M03/M09 A2997 RMK A01 T10281089  RH  062%=      5-min Rain = 0
KTIS 131205Z 22014KT M03/M09 A2997 RMK A01 T10271089  RH  062%=      5-min Rain = 0
KTIS 131210Z 22014KT M03/M09 A2997 RMK A01 T10251087  RH  062%=      5-min Rain = 0
KTIS 131215Z 22014KT M03/M09 A2997 RMK A01 T10251087  RH  062%=      5-min Rain = 0
KTIS 131220Z 22014KT M03/M09 A2997 RMK A01 T10261087  RH  063%=      5-min Rain = 0
KTIS 131225Z 22015KT M03/M09 A2997 RMK A01 T10271087  RH  063%=      5-min Rain = 0
KTIS 131230Z 22014G19KT M03/M09 A2997 RMK A01 T10271087  RH  063%=      5-min Rain = 0
KTIS 131235Z 21016KT M03/M09 A2997 RMK A01 T10261086  RH  063%=      5-min Rain = 0
KTIS 131240Z 22014G20KT M03/M09 A2996 RMK A01 T10261086  RH  063%=      5-min Rain = 0
KTIS 131245Z 22015G20KT M03/M09 A2997 RMK A01 T10251085  RH  063%=      5-min Rain = 0
KTIS 131250Z 21016KT M02/M08 A2997 RMK A01 T10231084  RH  063%=      5-min Rain = 0
KTIS 131255Z 22016KT M02/M08 A2996 RMK A01 T10231084  RH  063%=      5-min Rain = 0
KTIS 131300Z 21017KT M02/M08 A2996 RMK A01 T10221083  RH  063%=      5-min Rain = 0
KTIS 131305Z 22016KT M02/M08 A2996 RMK A01 T10211082  RH  063%=      5-min Rain = 0
KTIS 131310Z 22016G21KT M02/M08 A2996 RMK A01 T10211082  RH  063%=      5-min Rain = 0
KTIS 131315Z 22015KT M02/M08 A2996 RMK A01 T10211081  RH  063%=      5-min Rain = 0
KTIS 131320Z 22016KT M02/M08 A2996 RMK A01 T10201081  RH  063%=      5-min Rain = 0
KTIS 131325Z 22016KT M02/M08 A2996 RMK A01 T10181080  RH  063%=      5-min Rain = 0
KTIS 131330Z 22015KT M02/M08 A2996 RMK A01 T10181079  RH  063%=      5-min Rain = 0
KTIS 131335Z 22015KT M02/M08 A2995 RMK A01 T10171079  RH  063%=      5-min Rain = 0
KTIS 131340Z 22015KT M02/M08 A2996 RMK A01 T10171078  RH  063%=      5-min Rain = 0
KTIS 131345Z 22014KT M02/M08 A2996 RMK A01 T10181078  RH  063%=      5-min Rain = 0
KTIS 131350Z 22014G19KT M02/M08 A2996 RMK A01 T10161077  RH  063%=      5-min Rain = 0
KTIS 131355Z 21015KT M01/M08 A2995 RMK A01 T10141076  RH  062%=      5-min Rain = 0
KTIS 131400Z 22015KT M01/M08 A2995 RMK A01 T10121076  RH  062%=      5-min Rain = 0
KTIS 131405Z 22015KT M01/M08 A2995 RMK A01 T10101075  RH  061%=      5-min Rain = 0
KTIS 131410Z 22017KT M01/M07 A2995 RMK A01 T10081073  RH  061%=      5-min Rain = 0
KTIS 131415Z 22015KT M01/M07 A2995 RMK A01 T10051073  RH  060%=      5-min Rain = 0
KTIS 131420Z 22014G19KT M00/M07 A2995 RMK A01 T10021071  RH  060%=      5-min Rain = 0
KTIS 131425Z 22015KT 00/M07 A2995 RMK A01 T00011070  RH  059%=      5-min Rain = 0
KTIS 131430Z 22015KT 00/M07 A2996 RMK A01 T00041069  RH  058%=      5-min Rain = 0
KTIS 131435Z 23014KT 01/M07 A2995 RMK A01 T00071067  RH  057%=      5-min Rain = 0
KTIS 131440Z 23015G21KT 01/M07 A2995 RMK A01 T00111066  RH  056%=      5-min Rain = 0
KTIS 131445Z 23016G21KT 02/M07 A2995 RMK A01 T00151065  RH  055%=      5-min Rain = 0
KTIS 131450Z 23016G21KT 02/M06 A2995 RMK A01 T00181064  RH  055%=      5-min Rain = 0
KTIS 131455Z 23018KT 02/M06 A2995 RMK A01 T00211063  RH  054%=      5-min Rain = 0
KTIS 131500Z 23016G21KT 02/M06 A2995 RMK A01 T00241061  RH  053%=      5-min Rain = 0
KTIS 131505Z 23017G22KT 03/M06 A2995 RMK A01 T00281060  RH  053%=      5-min Rain = 0
KTIS 131510Z 23016G22KT 03/M06 A2995 RMK A01 T00301059  RH  052%=      5-min Rain = 0
KTIS 131515Z 23019G24KT 03/M06 A2994 RMK A01 T00321059  RH  051%=      5-min Rain = 0
KTIS 131520Z 23018KT 03/M06 A2994 RMK A01 T00341058  RH  051%=      5-min Rain = 0
KTIS 131525Z 23016G21KT 04/M06 A2994 RMK A01 T00381056  RH  050%=      5-min Rain = 0
KTIS 131530Z 23017KT 04/M06 A2995 RMK A01 T00421055  RH  049%=      5-min Rain = 0
KTIS 131535Z 23016G21KT 05/M05 A2995 RMK A01 T00461053  RH  049%=      5-min Rain = 0
KTIS 131540Z 24016KT 05/M05 A2995 RMK A01 T00491053  RH  048%=      5-min Rain = 0
KTIS 131545Z 23016KT 05/M05 A2995 RMK A01 T00511052  RH  047%=      5-min Rain = 0
KTIS 131550Z 24015KT 05/M05 A2995 RMK A01 T00531052  RH  047%=      5-min Rain = 0
KTIS 131555Z 23015KT 06/M05 A2995 RMK A01 T00571050  RH  046%=      5-min Rain = 0
KTIS 131600Z 23014KT 06/M05 A2995 RMK A01 T00611048  RH  046%=      5-min Rain = 0
KTIS 131605Z 23014KT 07/M05 A2995 RMK A01 T00651046  RH  045%=      5-min Rain = 0
KTIS 131610Z 24013KT 07/M04 A2995 RMK A01 T00691044  RH  044%=      5-min Rain = 0
KTIS 131615Z 24014G19KT 07/M04 A2995 RMK A01 T00741042  RH  043%=      5-min Rain = 0
KTIS 131620Z 23015KT 08/M04 A2995 RMK A01 T00781041  RH  043%=      5-min Rain = 0
KTIS 131625Z 24015KT 08/M04 A2994 RMK A01 T00811040  RH  042%=      5-min Rain = 0
KTIS 131630Z 24016G21KT 08/M04 A2994 RMK A01 T00841040  RH  041%=      5-min Rain = 0
KTIS 131635Z 24014G20KT 09/M04 A2994 RMK A01 T00891038  RH  041%=      5-min Rain = 0
KTIS 131640Z 24016G21KT 09/M04 A2995 RMK A01 T00911040  RH  040%=      5-min Rain = 0
KTIS 131645Z 24016G21KT 09/M04 A2994 RMK A01 T00941039  RH  039%=      5-min Rain = 0
KTIS 131650Z 24015G21KT 10/M04 A2994 RMK A01 T00971038  RH  039%=      5-min Rain = 0
KTIS 131655Z 25017G22KT 10/M04 A2994 RMK A01 T00991040  RH  037%=      5-min Rain = 0
KTIS 131700Z 24019KT 10/M04 A2994 RMK A01 T01001040  RH  037%=      5-min Rain = 0
KTIS 131705Z 25016G21KT 10/M04 A2994 RMK A01 T01021040  RH  037%=      5-min Rain = 0
KTIS 131710Z 23016G21KT 10/M04 A2994 RMK A01 T01041039  RH  036%=      5-min Rain = 0
KTIS 131715Z 23014G19KT 11/M04 A2994 RMK A01 T01091038  RH  036%=      5-min Rain = 0
KTIS 131720Z 23013KT 11/M04 A2994 RMK A01 T01101038  RH  035%=      5-min Rain = 0
KTIS 131725Z 22015G20KT 11/M04 A2993 RMK A01 T01141037  RH  035%=      5-min Rain = 0
KTIS 131730Z 23015G20KT 11/M04 A2993 RMK A01 T01141038  RH  034%=      5-min Rain = 0
KTIS 131735Z 22015KT 12/M04 A2992 RMK A01 T01191036  RH  034%=      5-min Rain = 0
KTIS 131740Z 23015KT 12/M04 A2992 RMK A01 T01201036  RH  033%=      5-min Rain = 0
KTIS 131745Z 24014G20KT 13/M04 A2993 RMK A01 T01251037  RH  032%=      5-min Rain = 0
KTIS 131750Z 25015KT 13/M04 A2993 RMK A01 T01271036  RH  032%=      5-min Rain = 0
KTIS 131755Z 23015G20KT 13/M04 A2992 RMK A01 T01301035  RH  032%=      5-min Rain = 0
KTIS 131800Z 24015G20KT 13/M04 A2992 RMK A01 T01301036  RH  031%=      5-min Rain = 0
KTIS 131805Z 24015KT 13/M03 A2992 RMK A01 T01341034  RH  031%=      5-min Rain = 0
KTIS 131810Z 24015KT 14/M03 A2991 RMK A01 T01391033  RH  030%=      5-min Rain = 0
KTIS 131815Z 25014G20KT 14/M03 A2992 RMK A01 T01401034  RH  030%=      5-min Rain = 0
KTIS 131820Z 25014G19KT 14/M03 A2991 RMK A01 T01431033  RH  029%=      5-min Rain = 0
KTIS 131825Z 25012KT 15/M03 A2991 RMK A01 T01481032  RH  029%=      5-min Rain = 0
KTIS 131830Z 24012G18KT 15/M03 A2991 RMK A01 T01511031  RH  029%=      5-min Rain = 0
KTIS 131835Z 25013KT 15/M03 A2991 RMK A01 T01531031  RH  028%=      5-min Rain = 0
KTIS 131840Z 24014KT 15/M03 A299 RMK A01 T01531032  RH  028%=      5-min Rain = 0
KTIS 131845Z 24014KT 16/M03 A299 RMK A01 T01551030  RH  028%=      5-min Rain = 0
KTIS 131850Z 25012KT 16/M03 A299 RMK A01 T01581030  RH  028%=      5-min Rain = 0
KTIS 131855Z 24012KT 16/M03 A299 RMK A01 T01621030  RH  027%=      5-min Rain = 0
KTIS 131900Z 25010KT 17/M03 A2989 RMK A01 T01661030  RH  026%=      5-min Rain = 0
KTIS 131905Z 25011KT 17/M03 A2989 RMK A01 T01681032  RH  025%=      5-min Rain = 0
KTIS 131910Z 25010KT 17/M03 A2989 RMK A01 T01681033  RH  025%=      5-min Rain = 0
KTIS 131915Z 25010G15KT 18/M03 A2988 RMK A01 T01751031  RH  024%=      5-min Rain = 0
KTIS 131920Z 26010KT 17/M04 A2988 RMK A01 T01741036  RH  024%=      5-min Rain = 0
KTIS 131925Z 28010G15KT 18/M04 A2988 RMK A01 T01781040  RH  022%=      5-min Rain = 0
KTIS 131930Z 28009KT 18/M04 A2988 RMK A01 T01781042  RH  022%=      5-min Rain = 0
KTIS 131935Z 28009KT 18/M04 A2988 RMK A01 T01791038  RH  023%=      5-min Rain = 0
KTIS 131940Z 28007G12KT 18/M04 A2987 RMK A01 T01811044  RH  021%=      5-min Rain = 0
KTIS 131945Z 28008KT 18/M05 A2987 RMK A01 T01781046  RH  021%=      5-min Rain = 0
KTIS 131950Z 28009KT 18/M04 A2987 RMK A01 T01801043  RH  022%=      5-min Rain = 0
KTIS 131955Z 27008KT 18/M04 A2987 RMK A01 T01831042  RH  021%=      5-min Rain = 0
KTIS 132000Z 27008KT 18/M04 A2987 RMK A01 T01841042  RH  021%=      5-min Rain = 0
KTIS 132005Z 31006KT 19/M05 A2987 RMK A01 T01861051  RH  020%=      5-min Rain = 0
KTIS 132010Z 29005KT 19/M05 A2987 RMK A01 T01871045  RH  020%=      5-min Rain = 0
KTIS 132015Z 28006KT 19/M04 A2987 RMK A01 T01851042  RH  021%=      5-min Rain = 0
KTIS 132020Z 26007KT 19/M04 A2987 RMK A01 T01881038  RH  021%=      5-min Rain = 0
KTIS 132025Z 29006KT 19/M04 A2987 RMK A01 T01881041  RH  021%=      5-min Rain = 0
KTIS 132030Z 29004KT 19/M04 A2987 RMK A01 T01871042  RH  021%=      5-min Rain = 0
KTIS 132035Z 27005KT 19/M04 A2987 RMK A01 T01891037  RH  021%=      5-min Rain = 0
KTIS 132040Z 30005KT 19/M04 A2987 RMK A01 T01941036  RH  021%=      5-min Rain = 0
KTIS 132045Z 30006KT 19/M04 A2987 RMK A01 T01941041  RH  020%=      5-min Rain = 0
KTIS 132050Z 31005KT 20/M04 A2987 RMK A01 T01951041  RH  020%=      5-min Rain = 0
KTIS 132055Z 32004KT 20/M04 A2987 RMK A01 T01961040  RH  020%=      5-min Rain = 0
KTIS 132100Z 35004KT 20/M04 A2987 RMK A01 T01961043  RH  020%=      5-min Rain = 0
KTIS 132105Z 34003KT 20/M04 A2987 RMK A01 T01971041  RH  020%=      5-min Rain = 0
KTIS 132110Z 35002KT 20/M04 A2987 RMK A01 T01971042  RH  020%=      5-min Rain = 0
KTIS 132115Z 02003KT 20/M04 A2987 RMK A01 T02011039  RH  020%=      5-min Rain = 0
KTIS 132120Z 02003KT 20/M04 A2987 RMK A01 T02011041  RH  019%=      5-min Rain = 0
KTIS 132125Z 01002KT 20/M04 A2987 RMK A01 T02011040  RH  019%=      5-min Rain = 0
KTIS 132130Z 33003KT 20/M04 A2987 RMK A01 T02001041  RH  019%=      5-min Rain = 0
KTIS 132135Z 33002KT 20/M04 A2987 RMK A01 T02001040  RH  019%=      5-min Rain = 0
KTIS 132140Z 05003G11KT 20/M04 A2988 RMK A01 T02031037  RH  020%=      5-min Rain = 0
KTIS 132145Z 05007G12KT 21/M04 A2988 RMK A01 T02071041  RH  019%=      5-min Rain = 0
KTIS 132150Z 03008KT 21/M05 A2988 RMK A01 T02071052  RH  017%=      5-min Rain = 0
KTIS 132155Z 03008KT 21/M05 A2988 RMK A01 T02061052  RH  017%=      5-min Rain = 0
KTIS 132200Z 02010KT 21/M05 A2989 RMK A01 T02051053  RH  017%=      5-min Rain = 0
KTIS 132205Z 02012KT 20/M06 A2989 RMK A01 T02031057  RH  017%=      5-min Rain = 0
KTIS 132210Z 03013G18KT 20/M06 A2989 RMK A01 T02011056  RH  017%=      5-min Rain = 0
KTIS 132215Z 03013KT 20/M06 A2989 RMK A01 T01981058  RH  017%=      5-min Rain = 0
KTIS 132220Z 01013KT 20/M06 A299 RMK A01 T01951057  RH  018%=      5-min Rain = 0
KTIS 132225Z 01011KT 19/M05 A299 RMK A01 T01931053  RH  018%=      5-min Rain = 0
KTIS 132230Z 02011KT 19/M05 A299 RMK A01 T01921051  RH  019%=      5-min Rain = 0
KTIS 132235Z 03012KT 19/M05 A299 RMK A01 T01911048  RH  019%=      5-min Rain = 0
KTIS 132240Z 04013G20KT 19/M05 A2991 RMK A01 T01891051  RH  019%=      5-min Rain = 0
KTIS 132245Z 03015G20KT 19/M06 A2991 RMK A01 T01861064  RH  018%=      5-min Rain = 0
KTIS 132250Z 03015G20KT 18/M06 A2991 RMK A01 T01831064  RH  018%=      5-min Rain = 0
KTIS 132255Z 03016G22KT 18/M06 A2992 RMK A01 T01801064  RH  018%=      5-min Rain = 0
KTIS 132300Z 03015G20KT 18/M06 A2992 RMK A01 T01771063  RH  019%=      5-min Rain = 0
KTIS 132305Z 03012G18KT 17/M06 A2992 RMK A01 T01741063  RH  019%=      5-min Rain = 0
KTIS 132310Z 03013G18KT 17/M06 A2992 RMK A01 T01701062  RH  020%=      5-min Rain = 0
KTIS 132315Z 02014G19KT 17/M06 A2993 RMK A01 T01661061  RH  021%=      5-min Rain = 0
KTIS 132320Z 02015KT 16/M06 A2993 RMK A01 T01631062  RH  021%=      5-min Rain = 0
KTIS 132325Z 02015KT 16/M06 A2993 RMK A01 T01591063  RH  021%=      5-min Rain = 0
KTIS 132330Z 02013G18KT 16/M06 A2993 RMK A01 T01551063  RH  022%=      5-min Rain = 0
KTIS 132335Z 02012KT 15/M06 A2993 RMK A01 T01511061  RH  023%=      5-min Rain = 0
KTIS 132340Z 02010KT 15/M06 A2994 RMK A01 T01461060  RH  024%=      5-min Rain = 0
KTIS 132345Z 02011KT 14/M06 A2994 RMK A01 T01401060  RH  024%=      5-min Rain = 0
KTIS 132350Z 02011KT 14/M06 A2994 RMK A01 T01391063  RH  024%=      5-min Rain = 0
KTIS 132355Z 02011KT 14/M07 A2995 RMK A01 T01371065  RH  024%=      5-min Rain = 0
KTIS 140000Z 03011KT 14/M07 A2995 RMK A01 T01361068  RH  024%=      5-min Rain = 0
KTIS 140005Z 03011KT 13/M07 A2995 RMK A01 T01321070  RH  024%=      5-min Rain = 0
KTIS 140010Z 03010KT 13/M07 A2995 RMK A01 T01281070  RH  025%=      5-min Rain = 0
KTIS 140015Z 03010KT 13/M07 A2996 RMK A01 T01251070  RH  025%=      5-min Rain = 0
KTIS 140020Z 02010KT 12/M07 A2996 RMK A01 T01221070  RH  026%=      5-min Rain = 0
KTIS 140025Z 03009KT 12/M07 A2996 RMK A01 T01181069  RH  026%=      5-min Rain = 0
KTIS 140030Z 02008KT 11/M07 A2996 RMK A01 T01131068  RH  027%=      5-min Rain = 0
KTIS 140035Z 02007KT 11/M07 A2997 RMK A01 T01081066  RH  029%=      5-min Rain = 0
KTIS 140040Z 02008KT 10/M07 A2997 RMK A01 T01011066  RH  030%=      5-min Rain = 0
KTIS 140045Z 03008KT 10/M07 A2997 RMK A01 T01021068  RH  030%=      5-min Rain = 0
KTIS 140050Z 03008KT 10/M07 A2997 RMK A01 T01031070  RH  029%=      5-min Rain = 0
KTIS 140055Z 03008KT 10/M07 A2998 RMK A01 T01001070  RH  030%=      5-min Rain = 0
KTIS 140100Z 03008KT 10/M07 A2998 RMK A01 T00961071  RH  030%=      5-min Rain = 0
KTIS 140105Z 04008KT 09/M07 A2998 RMK A01 T00871072  RH  032%=      5-min Rain = 0
KTIS 140110Z 04008KT 08/M07 A2998 RMK A01 T00821072  RH  033%=      5-min Rain = 0
KTIS 140115Z 04007KT 08/M07 A2998 RMK A01 T00781073  RH  033%=      5-min Rain = 0
KTIS 140120Z 04007KT 07/M07 A2998 RMK A01 T00741073  RH  035%=      5-min Rain = 0
KTIS 140125Z 03008KT 08/M07 A2999 RMK A01 T00751071  RH  035%=      5-min Rain = 0
KTIS 140130Z 02007KT 08/M07 A2999 RMK A01 T00771070  RH  035%=      5-min Rain = 0
KTIS 140135Z 02009KT 08/M07 A2999 RMK A01 T00761067  RH  036%=      5-min Rain = 0
KTIS 140140Z 03008KT 08/M07 A2999 RMK A01 T00791066  RH  035%=      5-min Rain = 0
KTIS 140145Z 03009KT 08/M07 A30 RMK A01 T00841065  RH  034%=      5-min Rain = 0
KTIS 140150Z 04009KT 08/M06 A30 RMK A01 T00821061  RH  036%=      5-min Rain = 0
KTIS 140155Z 04010KT 08/M06 A30 RMK A01 T00791057  RH  038%=      5-min Rain = 0
KTIS 140200Z 05009KT 08/M05 A30 RMK A01 T00761052  RH  040%=      5-min Rain = 0
KTIS 140205Z 04009KT 07/M05 A3001 RMK A01 T00711050  RH  042%=      5-min Rain = 0
KTIS 140210Z 04009KT 07/M05 A3001 RMK A01 T00701045  RH  044%=      5-min Rain = 0
KTIS 140215Z 04009KT 07/M04 A3001 RMK A01 T00701039  RH  046%=      5-min Rain = 0
KTIS 140220Z 03008KT 07/M04 A3002 RMK A01 T00691039  RH  046%=      5-min Rain = 0
KTIS 140225Z 03008KT 07/M04 A3002 RMK A01 T00671041  RH  046%=      5-min Rain = 0
KTIS 140230Z 03008KT 07/M04 A3002 RMK A01 T00671040  RH  047%=      5-min Rain = 0
KTIS 140235Z 03009KT 07/M04 A3002 RMK A01 T00661038  RH  048%=      5-min Rain = 0
KTIS 140240Z 03009KT 07/M04 A3002 RMK A01 T00651038  RH  048%=      5-min Rain = 0
KTIS 140245Z 03008KT 06/M04 A3003 RMK A01 T00641037  RH  049%=      5-min Rain = 0
KTIS 140250Z 02008KT 06/M03 A3003 RMK A01 T00641034  RH  050%=      5-min Rain = 0
KTIS 140255Z 02008KT 06/M04 A3003 RMK A01 T00621035  RH  050%=      5-min Rain = 0
KTIS 140300Z 02008KT 06/M04 A3004 RMK A01 T00591036  RH  051%=      5-min Rain = 0
KTIS 140305Z 01008KT 05/M04 A3004 RMK A01 T00521039  RH  052%=      5-min Rain = 0
KTIS 140310Z 01008KT 05/M04 A3004 RMK A01 T00451038  RH  055%=      5-min Rain = 0
KTIS 140315Z 01008KT 05/M03 A3005 RMK A01 T00471034  RH  056%=      5-min Rain = 0
KTIS 140320Z 01008KT 05/M03 A3005 RMK A01 T00481031  RH  057%=      5-min Rain = 0
KTIS 140325Z 01007KT 05/M03 A3006 RMK A01 T00481029  RH  058%=      5-min Rain = 0
KTIS 140330Z 01007KT 05/M03 A3006 RMK A01 T00471030  RH  057%=      5-min Rain = 0
KTIS 140335Z 01007KT 05/M03 A3006 RMK A01 T00461031  RH  058%=      5-min Rain = 0
KTIS 140340Z 02008KT 05/M03 A3006 RMK A01 T00451030  RH  058%=      5-min Rain = 0
KTIS 140345Z 02008KT 05/M03 A3007 RMK A01 T00491028  RH  058%=      5-min Rain = 0
KTIS 140350Z 02008KT 05/M03 A3007 RMK A01 T00491028  RH  058%=      5-min Rain = 0
KTIS 140355Z 02008KT 05/M03 A3007 RMK A01 T00511026  RH  058%=      5-min Rain = 0
KTIS 140400Z 02007KT 05/M03 A3008 RMK A01 T00501027  RH  058%=      5-min Rain = 0
KTIS 140405Z 02007KT 05/M03 A3008 RMK A01 T00461028  RH  059%=      5-min Rain = 0
KTIS 140410Z 01008KT 04/M03 A3008 RMK A01 T00421030  RH  060%=      5-min Rain = 0
KTIS 140415Z 01008KT 04/M03 A3008 RMK A01 T00401029  RH  061%=      5-min Rain = 0
KTIS 140420Z 01008KT 04/M03 A3008 RMK A01 T00421028  RH  061%=      5-min Rain = 0
KTIS 140425Z 01007KT 04/M03 A3008 RMK A01 T00431028  RH  060%=      5-min Rain = 0
KTIS 140430Z 00008KT 04/M03 A3009 RMK A01 T00391032  RH  060%=      5-min Rain = 0
KTIS 140435Z 00007KT 04/M03 A3009 RMK A01 T00351034  RH  061%=      5-min Rain = 0
KTIS 140440Z 00008KT 03/M04 A3009 RMK A01 T00301038  RH  062%=      5-min Rain = 0
KTIS 140445Z 00008KT 03/M04 A3009 RMK A01 T00281039  RH  062%=      5-min Rain = 0
KTIS 140450Z 00008KT 03/M04 A3009 RMK A01 T00281040  RH  061%=      5-min Rain = 0
KTIS 140455Z 36008KT 03/M04 A3009 RMK A01 T00251042  RH  061%=      5-min Rain = 0
KTIS 140500Z 36008KT 02/M04 A301 RMK A01 T00231043  RH  062%=      5-min Rain = 0
KTIS 140505Z 35008KT 02/M04 A301 RMK A01 T00231043  RH  062%=      5-min Rain = 0
KTIS 140510Z 35008KT 02/M04 A301 RMK A01 T00191043  RH  063%=      5-min Rain = 0
KTIS 140515Z 35008KT 02/M04 A301 RMK A01 T00171044  RH  064%=      5-min Rain = 0
KTIS 140520Z 35008KT 01/M05 A301 RMK A01 T00141046  RH  065%=      5-min Rain = 0
KTIS 140525Z 00009KT 02/M04 A301 RMK A01 T00211043  RH  063%=      5-min Rain = 0
KTIS 140530Z 36009KT 03/M05 A301 RMK A01 T00251045  RH  060%=      5-min Rain = 0
KTIS 140535Z 35007KT 02/M05 A3011 RMK A01 T00171047  RH  063%=      5-min Rain = 0
KTIS 140540Z 35007KT 01/M05 A3011 RMK A01 T00091048  RH  066%=      5-min Rain = 0
KTIS 140545Z 35007KT 01/M05 A3011 RMK A01 T00061049  RH  067%=      5-min Rain = 0
KTIS 140550Z 35007KT 01/M05 A3011 RMK A01 T00051049  RH  067%=      5-min Rain = 0
KTIS 140555Z 35007KT 00/M05 A3011 RMK A01 T00041049  RH  068%=      5-min Rain = 0

Page generated in 0.0168 seconds.